Time;durP1;ratioP1;P1;durP2;ratioP2;P2;SDS_P1;SDS_P2;PMS_P1;PMS_P2;Temp;Humidity;BMP_temperature;BMP_pressure;BME280_temperature;BME280_humidity;BME280_pressure;Samples;Min_cycle;Max_cycle;Signal;HPM_P1;HPM_P2
2023/04/17 00:01:08;;;;;;;17.63;13.57;;;7.50;99.90;;;;;;5074182;28;20247;-78
2023/04/17 00:03:36;;;;;;;15.90;13.43;;;7.50;99.90;;;;;;5073899;28;20742;-78
2023/04/17 00:06:03;;;;;;;19.53;13.63;;;7.40;99.90;;;;;;5074178;28;20314;-78
2023/04/17 00:08:30;;;;;;;16.23;12.57;;;7.50;99.90;;;;;;5074032;28;20224;-78
2023/04/17 00:10:58;;;;;;;15.60;12.50;;;7.50;99.90;;;;;;5074058;28;20218;-78
2023/04/17 00:13:24;;;;;;;17.40;13.87;;;7.50;99.90;;;;;;5073966;28;20243;-78
2023/04/17 00:15:51;;;;;;;16.90;13.40;;;7.50;99.90;;;;;;5073941;28;20228;-77
2023/04/17 00:18:17;;;;;;;17.03;13.33;;;7.50;99.90;;;;;;5073670;28;20228;-78
2023/04/17 00:20:44;;;;;;;17.20;13.37;;;7.40;99.90;;;;;;5073910;28;20628;-78
2023/04/17 00:23:10;;;;;;;20.43;14.37;;;7.40;99.90;;;;;;5073859;28;20236;-78
2023/04/17 00:25:37;;;;;;;16.23;13.37;;;7.40;99.90;;;;;;5073802;28;20241;-78
2023/04/17 00:28:05;;;;;;;17.87;13.40;;;7.40;99.90;;;;;;5073514;28;20247;-78
2023/04/17 00:30:32;;;;;;;19.27;14.63;;;7.50;99.90;;;;;;5073597;28;20250;-78
2023/04/17 00:32:58;;;;;;;16.23;14.13;;;7.40;99.90;;;;;;5073607;28;20225;-78
2023/04/17 00:35:25;;;;;;;18.40;14.10;;;7.40;99.90;;;;;;5073086;28;20291;-78
2023/04/17 00:37:52;;;;;;;16.77;13.87;;;7.50;99.90;;;;;;5073445;28;20228;-78
2023/04/17 00:40:19;;;;;;;16.63;14.30;;;7.40;99.90;;;;;;5073297;28;20691;-78
2023/04/17 00:42:51;;;;;;;18.87;14.20;;;7.40;99.90;;;;;;5073270;28;20637;-78
2023/04/17 00:45:20;;;;;;;18.60;14.23;;;7.40;99.90;;;;;;5073124;28;20197;-78
2023/04/17 00:47:47;;;;;;;17.47;13.87;;;7.40;99.90;;;;;;5073309;28;20255;-78
2023/04/17 00:50:14;;;;;;;16.33;13.27;;;7.40;99.90;;;;;;5073369;28;20231;-79
2023/04/17 00:52:42;;;;;;;19.17;14.73;;;7.50;99.90;;;;;;5073335;28;20207;-78
2023/04/17 00:55:09;;;;;;;17.53;14.30;;;7.40;99.90;;;;;;5072817;28;20231;-77
2023/04/17 00:57:35;;;;;;;18.93;15.10;;;7.40;99.90;;;;;;5072914;28;20236;-78
2023/04/17 01:00:03;;;;;;;19.43;14.80;;;7.40;99.90;;;;;;5072731;28;20232;-78
2023/04/17 01:02:31;;;;;;;19.83;14.33;;;7.40;99.90;;;;;;5073109;28;20246;-78
2023/04/17 01:04:57;;;;;;;18.50;14.87;;;7.40;99.90;;;;;;5072912;28;20232;-78
2023/04/17 01:07:24;;;;;;;19.07;15.23;;;7.40;99.90;;;;;;5072734;28;20256;-78
2023/04/17 01:09:51;;;;;;;17.20;14.27;;;7.40;99.90;;;;;;5072832;28;20228;-78
2023/04/17 01:12:19;;;;;;;19.57;14.17;;;7.40;99.90;;;;;;5072775;28;20231;-78
2023/04/17 01:14:46;;;;;;;18.17;14.13;;;7.40;99.90;;;;;;5072982;28;20207;-78
2023/04/17 01:17:14;;;;;;;19.57;14.80;;;7.40;99.90;;;;;;5072972;28;20197;-78
2023/04/17 01:19:42;;;;;;;18.10;14.27;;;7.40;99.90;;;;;;5072596;28;20629;-78
2023/04/17 01:22:08;;;;;;;18.63;14.40;;;7.40;99.90;;;;;;5072695;28;20247;-78
2023/04/17 01:24:36;;;;;;;18.53;14.37;;;7.40;99.90;;;;;;5072592;28;20315;-78
2023/04/17 01:27:03;;;;;;;18.00;14.77;;;7.40;99.90;;;;;;5072790;28;20260;-79
2023/04/17 01:29:30;;;;;;;18.43;15.10;;;7.30;99.90;;;;;;5072751;28;20196;-78
2023/04/17 01:31:57;;;;;;;19.00;14.70;;;7.30;99.90;;;;;;5072781;28;20326;-78
2023/04/17 01:34:24;;;;;;;18.23;14.40;;;7.30;99.90;;;;;;5072443;28;20252;-78
2023/04/17 01:36:50;;;;;;;16.83;13.93;;;7.30;99.90;;;;;;5072478;28;20573;-78
2023/04/17 01:39:17;;;;;;;22.10;14.83;;;7.30;99.90;;;;;;5072622;28;20224;-78
2023/04/17 01:41:45;;;;;;;16.00;13.40;;;7.40;99.90;;;;;;5072868;28;20232;-78
2023/04/17 01:44:11;;;;;;;17.83;14.63;;;7.40;99.90;;;;;;5072640;28;20197;-78
2023/04/17 01:46:38;;;;;;;17.50;14.70;;;7.30;99.90;;;;;;5072608;28;20255;-78
2023/04/17 01:49:05;;;;;;;21.80;14.63;;;7.30;99.90;;;;;;5072593;28;20231;-78
2023/04/17 01:51:32;;;;;;;17.97;14.93;;;7.30;99.90;;;;;;5072597;28;20219;-78
2023/04/17 01:53:59;;;;;;;18.33;15.20;;;7.40;99.90;;;;;;5072468;28;20247;-78
2023/04/17 01:56:26;;;;;;;20.03;16.27;;;7.30;99.90;;;;;;5072665;28;20231;-78
2023/04/17 01:58:54;;;;;;;17.67;14.27;;;7.30;99.90;;;;;;5072576;28;20273;-78
2023/04/17 02:01:20;;;;;;;20.10;14.93;;;7.30;99.90;;;;;;5072527;28;20258;-78
2023/04/17 02:03:47;;;;;;;17.67;14.33;;;7.30;99.90;;;;;;5072591;28;20232;-77
2023/04/17 02:06:13;;;;;;;16.30;13.53;;;7.30;99.90;;;;;;5072326;28;20258;-78
2023/04/17 02:08:40;;;;;;;17.73;14.93;;;7.30;99.90;;;;;;5072423;28;20237;-78
2023/04/17 02:11:06;;;;;;;17.57;14.73;;;7.30;99.90;;;;;;5072526;28;20225;-78
2023/04/17 02:13:33;;;;;;;19.53;15.13;;;7.20;99.90;;;;;;5076225;28;20648;-78
2023/04/17 02:16:01;;;;;;;19.77;15.07;;;7.30;99.90;;;;;;5076358;28;20231;-78
2023/04/17 02:18:28;;;;;;;17.83;14.23;;;7.30;99.90;;;;;;5076103;28;20648;-78
2023/04/17 02:20:54;;;;;;;18.50;14.87;;;7.20;99.90;;;;;;5075958;28;20229;-78
2023/04/17 02:23:21;;;;;;;18.37;14.20;;;7.20;99.90;;;;;;5076233;28;20237;-78
2023/04/17 02:25:48;;;;;;;18.73;15.00;;;7.30;99.90;;;;;;5076149;28;20201;-78
2023/04/17 02:28:14;;;;;;;18.70;14.27;;;7.30;99.90;;;;;;5076129;28;20232;-78
2023/04/17 02:30:41;;;;;;;18.73;14.40;;;7.30;99.90;;;;;;5075847;28;20225;-78
2023/04/17 02:33:09;;;;;;;18.37;13.83;;;7.20;99.90;;;;;;5075561;28;20227;-78
2023/04/17 02:35:35;;;;;;;18.83;14.37;;;7.20;99.90;;;;;;5075696;28;20235;-78
2023/04/17 02:38:02;;;;;;;17.30;13.93;;;7.20;99.90;;;;;;5076004;28;20205;-78
2023/04/17 02:40:29;;;;;;;18.10;14.13;;;7.20;99.90;;;;;;5075763;28;20259;-78
2023/04/17 02:42:55;;;;;;;18.23;14.07;;;7.20;99.90;;;;;;5075553;28;20668;-79
2023/04/17 02:45:22;;;;;;;21.13;15.37;;;7.20;99.90;;;;;;5075675;28;20225;-79
2023/04/17 02:47:48;;;;;;;17.07;13.50;;;7.20;99.90;;;;;;5075504;28;20256;-78
2023/04/17 02:50:16;;;;;;;16.67;13.67;;;7.20;99.90;;;;;;5075364;28;20311;-78
2023/04/17 02:52:43;;;;;;;19.10;13.50;;;7.20;99.90;;;;;;5075797;28;20228;-79
2023/04/17 02:55:10;;;;;;;17.50;13.80;;;7.20;99.90;;;;;;5075416;28;20227;-79
2023/04/17 02:57:36;;;;;;;17.27;13.63;;;7.20;99.90;;;;;;5075244;28;20241;-79
2023/04/17 03:00:07;;;;;;;16.87;14.17;;;7.20;99.90;;;;;;5075308;28;20233;-78
2023/04/17 03:02:35;;;;;;;17.23;13.50;;;7.20;99.90;;;;;;5075368;28;20197;-78
2023/04/17 03:05:03;;;;;;;18.20;14.57;;;7.20;99.90;;;;;;5075482;28;20211;-79
2023/04/17 03:07:31;;;;;;;17.90;13.73;;;7.20;99.90;;;;;;5075219;28;20228;-78
2023/04/17 03:09:57;;;;;;;17.03;13.47;;;7.20;99.90;;;;;;5075223;28;20245;-79
2023/04/17 03:12:24;;;;;;;16.63;12.93;;;7.20;99.90;;;;;;5074798;28;20298;-79
2023/04/17 03:14:51;;;;;;;18.43;13.50;;;7.20;99.90;;;;;;5074968;28;20239;-78
2023/04/17 03:17:19;;;;;;;17.80;13.37;;;7.20;99.90;;;;;;5074904;28;20354;-79
2023/04/17 03:19:45;;;;;;;17.57;14.13;;;7.20;99.90;;;;;;5074822;28;20246;-79
2023/04/17 03:22:12;;;;;;;17.53;13.07;;;7.20;99.90;;;;;;5074787;28;20677;-79
2023/04/17 03:24:40;;;;;;;15.90;13.07;;;7.20;99.90;;;;;;5075006;28;20263;-79
2023/04/17 03:27:07;;;;;;;17.20;14.30;;;7.20;99.90;;;;;;5074888;28;20312;-79
2023/04/17 03:29:33;;;;;;;17.63;14.23;;;7.20;99.90;;;;;;5074708;28;20625;-79
2023/04/17 03:32:00;;;;;;;17.70;13.70;;;7.20;99.90;;;;;;5074598;28;20640;-79
2023/04/17 03:34:27;;;;;;;15.50;13.80;;;7.20;99.90;;;;;;5074744;28;20267;-79
2023/04/17 03:36:54;;;;;;;14.93;12.37;;;7.30;99.90;;;;;;5074573;28;20200;-79
2023/04/17 03:39:21;;;;;;;15.70;13.33;;;7.20;99.90;;;;;;5074716;28;20604;-79
2023/04/17 03:41:49;;;;;;;16.03;13.23;;;7.30;99.90;;;;;;5074414;28;20231;-78
2023/04/17 03:44:17;;;;;;;16.83;13.80;;;7.20;99.90;;;;;;5074467;28;20227;-79
2023/04/17 03:46:44;;;;;;;15.63;12.90;;;7.20;99.90;;;;;;5074591;28;20232;-79
2023/04/17 03:49:10;;;;;;;17.13;13.30;;;7.20;99.90;;;;;;5074526;28;20230;-79
2023/04/17 03:51:37;;;;;;;16.90;13.83;;;7.20;99.90;;;;;;5074153;28;20197;-79
2023/04/17 03:54:03;;;;;;;14.83;13.17;;;7.30;99.90;;;;;;5074245;28;20200;-79
2023/04/17 03:56:31;;;;;;;16.37;12.87;;;7.20;99.90;;;;;;5073993;28;20703;-79
2023/04/17 03:58:58;;;;;;;19.07;14.50;;;7.30;99.90;;;;;;5073913;28;20693;-79
2023/04/17 04:01:27;;;;;;;14.90;12.97;;;7.30;99.90;;;;;;5074249;28;20225;-79
2023/04/17 04:03:53;;;;;;;15.53;13.53;;;7.30;99.90;;;;;;5074311;28;20196;-79
2023/04/17 04:06:21;;;;;;;16.83;13.37;;;7.30;99.90;;;;;;5073883;28;20228;-79
2023/04/17 04:08:47;;;;;;;16.40;13.60;;;7.30;99.90;;;;;;5073683;28;20277;-80
2023/04/17 04:11:14;;;;;;;15.97;13.63;;;7.30;99.90;;;;;;5073713;28;20201;-79
2023/04/17 04:13:41;;;;;;;15.47;12.90;;;7.30;99.90;;;;;;5073562;28;20196;-79
2023/04/17 04:16:09;;;;;;;16.73;12.83;;;7.30;99.90;;;;;;5073494;28;20225;-79
2023/04/17 04:18:36;;;;;;;17.40;13.63;;;7.30;99.90;;;;;;5073546;28;20291;-79
2023/04/17 04:21:03;;;;;;;16.90;13.63;;;7.20;99.90;;;;;;5073516;28;20224;-80
2023/04/17 04:23:30;;;;;;;17.50;14.00;;;7.30;99.90;;;;;;5073583;28;20228;-79
2023/04/17 04:25:56;;;;;;;15.23;12.97;;;7.20;99.90;;;;;;5073330;28;20201;-78
2023/04/17 04:28:23;;;;;;;15.97;12.70;;;7.20;99.90;;;;;;5073665;28;20224;-79
2023/04/17 04:30:52;;;;;;;16.70;13.53;;;7.20;99.90;;;;;;5073592;28;20197;-79
2023/04/17 04:33:20;;;;;;;17.97;13.60;;;7.20;99.90;;;;;;5073263;28;20197;-79
2023/04/17 04:35:47;;;;;;;16.60;14.27;;;7.20;99.90;;;;;;5072762;28;20240;-79
2023/04/17 04:38:14;;;;;;;16.47;13.20;;;7.20;99.90;;;;;;5073398;28;20201;-79
2023/04/17 04:40:44;;;;;;;15.93;13.40;;;7.20;99.90;;;;;;5073155;28;20286;-79
2023/04/17 04:43:10;;;;;;;16.60;13.63;;;7.30;99.90;;;;;;5073035;28;20204;-81
2023/04/17 04:45:37;;;;;;;16.77;13.00;;;7.30;99.90;;;;;;5073172;28;20262;-78
2023/04/17 04:48:03;;;;;;;15.37;13.30;;;7.30;99.90;;;;;;5073296;28;20262;-79
2023/04/17 04:50:31;;;;;;;16.57;13.10;;;7.30;99.90;;;;;;5073169;28;20228;-77
2023/04/17 04:52:58;;;;;;;16.37;13.43;;;7.40;99.90;;;;;;5072797;28;20193;-79
2023/04/17 04:55:25;;;;;;;16.47;14.00;;;7.40;99.90;;;;;;5073135;28;20228;-79
2023/04/17 04:57:53;;;;;;;16.53;13.30;;;7.40;99.90;;;;;;5073174;28;20201;-79
2023/04/17 05:00:20;;;;;;;16.23;13.27;;;7.40;99.90;;;;;;5072539;28;20798;-79
2023/04/17 05:02:46;;;;;;;16.40;13.43;;;7.40;99.90;;;;;;5073023;28;20240;-79
2023/04/17 05:05:13;;;;;;;16.80;13.67;;;7.50;99.90;;;;;;5072868;28;20225;-79
2023/04/17 05:07:41;;;;;;;14.57;12.70;;;7.50;99.90;;;;;;5072734;28;20221;-79
2023/04/17 05:10:08;;;;;;;16.23;13.80;;;7.50;99.90;;;;;;5072888;28;20201;-79
2023/04/17 05:12:35;;;;;;;14.90;13.30;;;7.60;99.90;;;;;;5072946;28;20197;-80
2023/04/17 05:15:02;;;;;;;15.50;13.60;;;7.60;99.90;;;;;;5072761;28;20656;-80
2023/04/17 05:17:29;;;;;;;15.63;13.03;;;7.60;99.90;;;;;;5072689;28;20661;-80
2023/04/17 05:19:55;;;;;;;14.23;12.70;;;7.70;99.90;;;;;;5072755;28;20236;-79
2023/04/17 05:22:22;;;;;;;13.83;12.27;;;7.70;99.90;;;;;;5072619;28;20251;-79
2023/04/17 05:24:50;;;;;;;15.63;12.43;;;7.70;99.90;;;;;;5072811;28;20339;-79
2023/04/17 05:27:16;;;;;;;14.13;11.67;;;7.70;99.90;;;;;;5072535;28;20569;-79
2023/04/17 05:29:43;;;;;;;14.33;12.03;;;7.70;99.90;;;;;;5072270;28;20238;-78
2023/04/17 05:32:10;;;;;;;13.37;11.83;;;7.80;99.90;;;;;;5072665;28;20619;-80
2023/04/17 05:34:36;;;;;;;14.33;12.17;;;7.80;99.90;;;;;;5072539;28;20251;-79
2023/04/17 05:37:03;;;;;;;13.43;11.27;;;7.80;99.90;;;;;;5073180;28;20287;-78
2023/04/17 05:39:29;;;;;;;12.63;11.20;;;7.80;99.90;;;;;;5072491;28;20204;-80
2023/04/17 05:41:57;;;;;;;14.47;12.33;;;7.90;99.90;;;;;;5073109;28;20764;-76
2023/04/17 05:44:24;;;;;;;13.33;11.43;;;7.90;99.90;;;;;;5072464;28;20232;-80
2023/04/17 05:46:51;;;;;;;12.63;11.33;;;7.90;99.90;;;;;;5073792;28;20201;-78
2023/04/17 05:49:17;;;;;;;13.57;12.10;;;7.90;99.90;;;;;;5076465;28;20297;-78
2023/04/17 05:51:44;;;;;;;12.57;11.27;;;7.90;99.90;;;;;;5076220;28;20235;-78
2023/04/17 05:54:11;;;;;;;15.03;11.33;;;7.90;99.90;;;;;;5076468;28;20197;-78
2023/04/17 05:56:38;;;;;;;14.10;11.37;;;7.90;99.90;;;;;;5076341;28;20244;-78
2023/04/17 05:59:06;;;;;;;11.83;10.57;;;7.90;99.90;;;;;;5076181;28;20664;-77
2023/04/17 06:01:32;;;;;;;11.67;10.43;;;8.00;99.90;;;;;;5076177;28;20233;-80
2023/04/17 06:03:59;;;;;;;12.77;10.30;;;8.00;99.90;;;;;;5076074;28;20201;-78
2023/04/17 06:06:26;;;;;;;13.57;10.80;;;8.00;99.90;;;;;;5076429;28;20201;-78
2023/04/17 06:08:53;;;;;;;12.63;11.30;;;8.00;99.90;;;;;;5075776;28;20664;-78
2023/04/17 06:11:19;;;;;;;13.27;11.23;;;8.00;99.90;;;;;;5076048;28;20672;-78
2023/04/17 06:13:46;;;;;;;13.60;11.60;;;8.00;99.90;;;;;;5076002;28;20236;-79
2023/04/17 06:16:14;;;;;;;12.40;11.10;;;8.00;99.90;;;;;;5075934;28;20228;-80
2023/04/17 06:18:41;;;;;;;12.47;10.87;;;8.00;99.90;;;;;;5075999;28;20225;-79
2023/04/17 06:21:08;;;;;;;12.93;11.50;;;8.00;99.90;;;;;;5075883;28;20258;-78
2023/04/17 06:23:35;;;;;;;13.90;11.90;;;8.00;99.90;;;;;;5076003;28;20232;-79
2023/04/17 06:26:02;;;;;;;16.77;12.70;;;8.00;99.90;;;;;;5075919;28;20197;-83
2023/04/17 06:28:28;;;;;;;16.07;12.70;;;8.00;99.90;;;;;;5076143;28;20213;-81
2023/04/17 06:30:55;;;;;;;12.63;11.03;;;8.00;99.90;;;;;;5075733;28;20570;-80
2023/04/17 06:33:23;;;;;;;15.17;11.87;;;8.00;99.90;;;;;;5075587;28;20240;-77
2023/04/17 06:35:50;;;;;;;12.73;11.20;;;7.90;99.90;;;;;;5075493;28;20248;-79
2023/04/17 06:38:16;;;;;;;12.90;10.77;;;8.00;99.90;;;;;;5075829;28;20311;-80
2023/04/17 06:40:43;;;;;;;13.90;11.80;;;8.00;99.90;;;;;;5075928;28;20220;-79
2023/04/17 06:43:09;;;;;;;12.37;10.70;;;8.10;99.90;;;;;;5054980;28;20193;-76
2023/04/17 06:45:36;;;;;;;12.50;10.60;;;8.10;99.90;;;;;;5058643;28;20197;-83
2023/04/17 06:48:02;;;;;;;12.10;10.53;;;8.10;99.90;;;;;;5056863;28;20261;-80
2023/04/17 06:50:31;;;;;;;12.17;10.70;;;8.20;99.90;;;;;;5055465;28;20198;-79
2023/04/17 06:52:57;;;;;;;11.37;10.27;;;8.30;99.90;;;;;;5055138;28;20608;-81
2023/04/17 06:55:24;;;;;;;10.70;9.60;;;8.40;99.90;;;;;;5055355;28;20322;-78
2023/04/17 06:57:50;;;;;;;12.70;10.13;;;8.50;99.90;;;;;;5054217;28;20596;-80
2023/04/17 07:00:18;;;;;;;11.87;10.53;;;8.60;99.90;;;;;;5055131;28;20206;-78
2023/04/17 07:02:45;;;;;;;10.33;9.23;;;8.60;99.90;;;;;;5054849;28;20561;-80
2023/04/17 07:05:12;;;;;;;14.73;10.93;;;8.70;99.90;;;;;;5055254;28;20220;-80
2023/04/17 07:07:40;;;;;;;12.57;9.20;;;8.70;99.90;;;;;;5054775;28;20243;-77
2023/04/17 07:10:08;;;;;;;10.57;9.43;;;8.60;99.90;;;;;;5078215;28;20326;-79
2023/04/17 07:12:34;;;;;;;11.23;9.07;;;8.70;99.90;;;;;;5074908;28;20207;-76
2023/04/17 07:15:01;;;;;;;11.03;9.30;;;8.80;99.90;;;;;;5072264;28;20197;-78
2023/04/17 07:17:28;;;;;;;9.80;8.80;;;8.90;99.90;;;;;;5074382;28;20274;-78
2023/04/17 07:19:55;;;;;;;9.03;8.13;;;8.80;99.90;;;;;;5073501;28;20236;-78
2023/04/17 07:22:22;;;;;;;10.47;8.53;;;8.80;99.90;;;;;;5073915;28;20201;-78
2023/04/17 07:24:50;;;;;;;11.77;9.57;;;9.00;99.90;;;;;;5074211;28;20240;-79
2023/04/17 07:27:16;;;;;;;9.23;8.33;;;9.00;99.90;;;;;;5073322;28;20717;-80
2023/04/17 07:29:45;;;;;;;9.37;8.30;;;9.10;99.90;;;;;;5074696;28;20252;-79
2023/04/17 07:32:12;;;;;;;9.20;8.30;;;9.10;99.90;;;;;;5072710;28;20224;-78
2023/04/17 07:34:40;;;;;;;9.67;8.67;;;9.20;99.90;;;;;;5073847;28;20233;-79
2023/04/17 07:37:07;;;;;;;9.27;8.30;;;9.20;99.90;;;;;;5074202;28;20246;-80
2023/04/17 07:39:34;;;;;;;9.50;8.50;;;9.30;99.90;;;;;;5074363;28;20208;-81
2023/04/17 07:42:05;;;;;;;9.60;8.40;;;9.30;99.90;;;;;;5074089;28;20201;-80
2023/04/17 07:44:31;;;;;;;9.67;8.60;;;9.30;99.90;;;;;;5074350;28;20197;-79
2023/04/17 07:46:58;;;;;;;11.10;9.37;;;9.40;99.90;;;;;;5066920;28;20225;-80
2023/04/17 07:49:25;;;;;;;10.03;9.03;;;9.40;99.90;;;;;;5054166;28;20280;-79
2023/04/17 07:51:51;;;;;;;10.70;9.10;;;9.40;99.90;;;;;;5054270;28;20342;-78
2023/04/17 07:54:18;;;;;;;9.80;8.63;;;9.40;99.90;;;;;;5054039;28;20722;-79
2023/04/17 07:56:45;;;;;;;9.07;8.17;;;9.30;99.90;;;;;;5054385;28;20225;-76
2023/04/17 07:59:13;;;;;;;8.67;7.87;;;9.40;99.90;;;;;;5054386;28;20208;-76
2023/04/17 08:01:40;;;;;;;9.03;8.13;;;9.50;99.90;;;;;;5054176;28;20197;-77
2023/04/17 08:04:07;;;;;;;8.80;8.00;;;9.50;99.90;;;;;;5054078;28;20204;-77
2023/04/17 08:06:33;;;;;;;9.70;7.77;;;9.60;99.90;;;;;;5053946;28;20240;-77
2023/04/17 08:09:01;;;;;;;8.80;7.90;;;9.70;99.90;;;;;;5052882;28;20309;-77
2023/04/17 08:11:27;;;;;;;9.97;8.00;;;9.80;99.90;;;;;;5053912;28;20745;-77
2023/04/17 08:13:54;;;;;;;8.10;7.30;;;9.90;99.90;;;;;;5053648;28;20620;-77
2023/04/17 08:16:22;;;;;;;8.13;7.20;;;9.80;99.90;;;;;;5053765;28;20247;-76
2023/04/17 08:18:49;;;;;;;8.40;7.60;;;9.80;99.90;;;;;;5053748;28;20206;-76
2023/04/17 08:21:15;;;;;;;8.07;7.30;;;9.90;99.90;;;;;;5053140;28;20657;-77
2023/04/17 08:23:42;;;;;;;8.60;7.77;;;10.00;99.90;;;;;;5052919;28;20240;-77
2023/04/17 08:26:08;;;;;;;8.00;7.20;;;10.00;99.90;;;;;;5053459;28;20232;-78
2023/04/17 08:28:35;;;;;;;8.10;7.27;;;10.00;99.90;;;;;;5053552;28;20252;-77
2023/04/17 08:31:02;;;;;;;8.33;7.43;;;10.10;99.90;;;;;;5053424;28;20198;-78
2023/04/17 08:33:30;;;;;;;8.17;7.37;;;10.10;99.90;;;;;;5053290;28;20213;-77
2023/04/17 08:35:57;;;;;;;8.30;7.50;;;10.20;99.90;;;;;;5052886;28;20589;-77
2023/04/17 08:38:23;;;;;;;8.37;7.47;;;10.30;99.90;;;;;;5053373;28;20233;-77
2023/04/17 08:40:52;;;;;;;7.97;7.17;;;10.50;99.90;;;;;;5052961;28;20236;-77
2023/04/17 08:43:20;;;;;;;7.30;6.57;;;10.70;99.90;;;;;;5052941;28;20229;-77
2023/04/17 08:45:52;;;;;;;7.33;6.63;;;11.00;99.90;;;;;;5053062;28;20649;-78
2023/04/17 08:48:19;;;;;;;7.70;6.87;;;11.00;99.90;;;;;;5052895;28;20300;-77
2023/04/17 08:50:49;;;;;;;8.03;7.23;;;10.90;99.90;;;;;;5053023;28;20229;-78
2023/04/17 08:53:16;;;;;;;7.53;6.73;;;10.50;99.90;;;;;;5053230;28;20194;-77
2023/04/17 08:55:43;;;;;;;7.33;6.60;;;10.60;99.90;;;;;;5053414;28;20202;-77
2023/04/17 08:58:11;;;;;;;7.63;6.93;;;10.80;99.90;;;;;;5053218;28;20197;-76
2023/04/17 09:00:40;;;;;;;7.07;6.37;;;11.30;99.90;;;;;;5053224;28;20596;-78
2023/04/17 09:03:08;;;;;;;7.60;6.77;;;11.70;99.90;;;;;;5052967;28;20217;-78
2023/04/17 09:05:36;;;;;;;6.73;6.13;;;12.00;99.90;;;;;;5053314;28;20201;-78
2023/04/17 09:08:12;;;;;;;7.60;6.40;;;12.20;99.90;;;;;;5052755;28;20194;-78
2023/04/17 09:10:39;;;;;;;7.07;6.37;;;12.00;99.90;;;;;;5052891;28;20288;-77
2023/04/17 09:13:07;;;;;;;6.90;6.30;;;12.20;99.90;;;;;;5052908;28;20646;-77
2023/04/17 09:15:34;;;;;;;7.97;6.60;;;12.50;99.90;;;;;;5052736;28;20645;-77
2023/04/17 09:18:01;;;;;;;6.97;6.27;;;12.40;99.90;;;;;;5053060;28;20224;-77
2023/04/17 09:20:28;;;;;;;6.30;5.70;;;12.60;99.90;;;;;;5052538;28;20267;-77
2023/04/17 09:23:00;;;;;;;6.73;6.10;;;12.50;99.90;;;;;;5052766;28;20201;-77
2023/04/17 09:25:28;;;;;;;7.13;6.40;;;12.20;99.90;;;;;;5052611;28;20229;-76
2023/04/17 09:27:55;;;;;;;6.77;6.10;;;12.10;99.90;;;;;;5052895;28;20201;-78
2023/04/17 09:30:25;;;;;;;8.20;7.40;;;11.90;99.90;;;;;;5052663;28;20221;-77
2023/04/17 09:33:04;;;;;;;8.27;6.70;;;11.90;99.90;;;;;;5052567;28;20676;-78
2023/04/17 09:35:31;;;;;;;8.43;5.90;;;12.10;99.90;;;;;;5052350;28;20263;-76
2023/04/17 09:37:58;;;;;;;7.20;6.50;;;12.30;99.90;;;;;;5052637;28;20557;-78
2023/04/17 09:40:26;;;;;;;7.57;6.80;;;12.00;99.90;;;;;;5052263;28;20251;-76
2023/04/17 09:42:57;;;;;;;7.23;6.40;;;11.70;99.90;;;;;;5052456;28;20202;-76
2023/04/17 09:45:25;;;;;;;7.07;6.47;;;11.80;99.90;;;;;;5052908;28;20621;-76
2023/04/17 09:47:54;;;;;;;7.43;6.73;;;11.30;99.90;;;;;;5052330;28;20720;-77
2023/04/17 09:50:23;;;;;;;7.10;6.33;;;11.60;99.90;;;;;;5052426;28;20225;-77
2023/04/17 09:52:51;;;;;;;6.80;6.10;;;11.70;99.90;;;;;;5052131;28;20212;-77
2023/04/17 09:55:21;;;;;;;7.60;6.83;;;11.60;99.90;;;;;;5052369;28;20230;-78
2023/04/17 09:57:49;;;;;;;6.77;6.13;;;11.40;99.90;;;;;;5052356;28;20666;-76
2023/04/17 10:00:19;;;;;;;7.00;6.30;;;11.40;99.90;;;;;;5052559;28;20208;-77
2023/04/17 10:02:50;;;;;;;7.77;6.97;;;11.50;99.90;;;;;;5052847;28;20194;-77
2023/04/17 10:05:17;;;;;;;7.73;7.03;;;11.70;99.90;;;;;;5052410;28;20198;-75
2023/04/17 10:07:44;;;;;;;7.20;6.50;;;11.90;99.90;;;;;;5052196;28;20232;-78
2023/04/17 10:10:12;;;;;;;7.33;6.63;;;12.30;99.90;;;;;;5052263;28;20617;-78
2023/04/17 10:12:40;;;;;;;7.03;6.40;;;12.50;99.90;;;;;;5064348;28;20227;-76
2023/04/17 10:15:08;;;;;;;7.00;6.40;;;12.40;99.90;;;;;;5071446;28;20193;-76
2023/04/17 10:17:37;;;;;;;7.57;6.50;;;12.50;99.90;;;;;;5071988;28;20589;-77
2023/04/17 10:20:32;;;;;;;7.50;6.80;;;12.60;99.90;;;;;;5071894;28;20205;-77
2023/04/17 10:23:00;;;;;;;7.27;6.57;;;12.60;99.90;;;;;;5051896;28;20259;-77
2023/04/17 10:25:28;;;;;;;6.60;5.90;;;12.70;99.90;;;;;;5051993;28;20320;-77
2023/04/17 10:27:57;;;;;;;6.80;6.20;;;12.40;99.90;;;;;;5051787;28;20280;-76
2023/04/17 10:30:25;;;;;;;7.53;6.73;;;12.20;99.90;;;;;;5051979;28;20225;-74
2023/04/17 10:33:21;;;;;;;8.70;7.13;;;12.10;99.90;;;;;;5052857;28;20202;-77
2023/04/17 10:35:48;;;;;;;6.97;6.27;;;11.90;99.90;;;;;;5055413;28;20233;-77
2023/04/17 10:38:17;;;;;;;7.30;6.60;;;11.90;99.90;;;;;;5055728;28;20205;-76
2023/04/17 10:40:44;;;;;;;6.70;6.00;;;12.20;99.90;;;;;;5056825;28;20255;-77
2023/04/17 10:43:13;;;;;;;6.20;5.60;;;12.40;99.90;;;;;;5066898;28;20201;-76
2023/04/17 10:46:11;;;;;;;6.37;5.77;;;12.60;99.90;;;;;;5069280;28;20635;-75
2023/04/17 10:48:46;;;;;;;6.13;5.53;;;12.80;99.90;;;;;;5074829;28;20197;-76
2023/04/17 10:51:42;;;;;;;6.93;6.23;;;12.10;99.90;;;;;;5075092;28;20197;-76
2023/04/17 10:54:12;;;;;;;7.70;6.90;;;12.40;99.90;;;;;;5075225;28;20194;-77
2023/04/17 10:56:40;;;;;;;8.13;7.20;;;11.70;99.90;;;;;;5075203;28;20197;-77
2023/04/17 10:59:09;;;;;;;8.40;6.90;;;11.50;99.90;;;;;;5075181;28;20245;-75
2023/04/17 11:01:39;;;;;;;8.07;7.17;;;11.90;99.90;;;;;;5074798;28;20199;-75
2023/04/17 11:04:08;;;;;;;7.50;6.70;;;11.70;99.90;;;;;;5074565;28;20665;-76
2023/04/17 11:06:38;;;;;;;7.60;6.90;;;11.70;99.90;;;;;;5075016;28;20223;-76
2023/04/17 11:09:08;;;;;;;7.70;6.90;;;11.40;99.90;;;;;;5074683;28;20594;-76
2023/04/17 11:11:38;;;;;;;7.87;6.70;;;11.50;99.90;;;;;;5074862;28;20221;-77
2023/04/17 11:14:08;;;;;;;7.90;7.10;;;11.60;99.90;;;;;;5074879;28;20201;-77
2023/04/17 11:16:34;;;;;;;7.70;6.97;;;11.50;99.90;;;;;;5074581;28;20220;-76
2023/04/17 11:19:01;;;;;;;7.50;6.80;;;11.70;99.90;;;;;;5074509;28;20690;-78
2023/04/17 11:21:29;;;;;;;7.67;6.97;;;12.20;99.90;;;;;;5074835;28;20228;-77
2023/04/17 11:23:56;;;;;;;7.43;6.60;;;12.10;99.90;;;;;;5074662;28;20250;-76
2023/04/17 11:26:23;;;;;;;7.23;6.53;;;12.60;99.90;;;;;;5074401;28;20280;-76
2023/04/17 11:28:50;;;;;;;9.93;6.37;;;13.10;99.90;;;;;;5072900;28;20720;-79
2023/04/17 11:31:16;;;;;;;7.00;6.30;;;13.60;99.90;;;;;;5072334;28;20271;-77
2023/04/17 11:33:43;;;;;;;6.37;5.77;;;13.90;99.90;;;;;;5072312;28;20201;-76
2023/04/17 11:36:10;;;;;;;11.45;10.25;;;13.60;99.90;;;;;;5073933;28;20609;-80
2023/04/17 11:38:46;;;;;;;7.35;6.63;;;13.50;99.90;;;;;;5073790;28;20197;-77
2023/04/17 11:41:13;;;;;;;8.93;6.03;;;13.80;99.90;;;;;;5074211;28;20228;-75
2023/04/17 11:43:39;;;;;;;5.80;5.30;;;14.20;99.90;;;;;;5074163;28;20232;-76
2023/04/17 11:46:06;;;;;;;7.32;6.07;;;15.00;99.90;;;;;;5073955;28;20654;-76
2023/04/17 11:48:34;;;;;;;6.13;5.53;;;14.80;99.90;;;;;;5074260;28;20197;-77
2023/04/17 11:51:05;;;;;;;6.10;5.38;;;15.00;99.90;;;;;;5068821;28;20701;-80
2023/04/17 11:53:34;;;;;;;7.22;5.60;;;14.80;99.90;;;;;;5072920;28;20688;-78
2023/04/17 11:56:17;;;;;;;5.68;5.18;;;15.80;99.90;;;;;;5072535;28;20239;-78
2023/04/17 11:58:48;;;;;;;5.90;5.40;;;15.70;99.90;;;;;;5072758;28;20251;-78
2023/04/17 12:01:15;;;;;;;6.18;5.43;;;14.90;99.90;;;;;;5072828;28;20236;-76
2023/04/17 12:03:42;;;;;;;5.63;5.05;;;14.90;99.90;;;;;;5072463;28;20201;-76
2023/04/17 12:06:10;;;;;;;5.20;4.80;;;15.50;99.90;;;;;;5072258;28;20200;-76
2023/04/17 12:08:46;;;;;;;5.30;4.90;;;15.70;99.90;;;;;;5072427;28;20276;-77
2023/04/17 12:11:24;;;;;;;4.88;4.47;;;15.80;99.90;;;;;;5072355;28;20314;-77
2023/04/17 12:13:51;;;;;;;4.80;4.40;;;16.50;99.90;;;;;;5072335;28;20201;-77
2023/04/17 12:16:18;;;;;;;6.95;4.22;;;16.90;99.90;;;;;;5072395;28;20205;-77
2023/04/17 12:18:45;;;;;;;5.18;4.68;;;16.90;99.90;;;;;;5072061;28;20267;-77
2023/04/17 12:21:12;;;;;;;6.50;4.80;;;16.70;99.90;;;;;;5072216;28;20258;-77
2023/04/17 12:23:38;;;;;;;4.90;4.50;;;15.10;99.90;;;;;;5072053;28;20628;-77
2023/04/17 12:26:05;;;;;;;5.93;5.30;;;15.60;99.90;;;;;;5072138;28;20239;-78
2023/04/17 12:28:33;;;;;;;5.30;4.80;;;15.80;99.90;;;;;;5072130;28;20203;-76
2023/04/17 12:31:00;;;;;;;5.20;4.70;;;15.30;99.90;;;;;;5072010;28;20320;-76
2023/04/17 12:33:26;;;;;;;5.45;4.95;;;14.90;99.90;;;;;;5072000;28;20205;-76
2023/04/17 12:35:53;;;;;;;4.90;4.50;;;14.70;99.90;;;;;;5071726;28;20263;-76
2023/04/17 12:38:20;;;;;;;5.43;4.93;;;14.90;99.90;;;;;;5071900;28;20232;-74
2023/04/17 12:40:46;;;;;;;5.30;4.78;;;14.70;99.90;;;;;;5073223;28;20233;-76
2023/04/17 12:43:13;;;;;;;5.93;4.80;;;14.80;99.90;;;;;;5072994;28;20225;-76
2023/04/17 12:45:44;;;;;;;6.88;4.30;;;15.60;99.90;;;;;;5073062;28;20201;-76